In Rescue
 
Open Full Screen Window  High Contrast Mode
Wind Gusting 00 knots
04
March 31, 2020 2:29 PM EDT
Weather Information
Wind Direction
  030 °
Wind Speed
  04 kt (5 mph)
Wind Gust
  00 kt (0 mph)
Altimeter
29.88 in
Visibility
10 SM
Temperature
08° C
46° F
Dewpoint
02° C
36° F
Humidity
66%
1hr Rain Fall
00.00 in.
24hr Rain Fall
00.00 in.
Sky Condition
Overcast @ 3,900 ft
Scattered @ 2,600 ft
VFR

METAR KI69 311829Z AUTO 03004KT 10SM SCT026 OVC039 08/02 A2988 RMK AO2 T00770021

FAA Disclaimer: The data displayed is for advisory purposes only and is not to be used for flight planning or operations.